Time;durP1;ratioP1;P1;durP2;ratioP2;P2;SDS_P1;SDS_P2;PMS_P1;PMS_P2;Temp;Humidity;BMP_temperature;BMP_pressure;BME280_temperature;BME280_humidity;BME280_pressure;Samples;Min_cycle;Max_cycle;Signal;HPM_P1;HPM_P2
2023/07/19 00:00:10;;;;;;;7.00;2.90;;;;;;;19.66;100.00;97589.31;1224488;75;2959597;-69
2023/07/19 00:02:43;;;;;;;6.30;3.05;;;;;;;19.41;100.00;97588.09;1224192;75;2930968;-68
2023/07/19 00:05:16;;;;;;;8.45;3.80;;;;;;;19.16;100.00;97557.84;1224678;75;2918540;-69
2023/07/19 00:07:48;;;;;;;5.95;3.00;;;;;;;19.28;100.00;97536.16;1224292;75;2926522;-67
2023/07/19 00:10:23;;;;;;;8.05;2.85;;;;;;;19.53;100.00;97503.28;1224630;75;2921521;-69
2023/07/19 00:12:56;;;;;;;7.05;3.15;;;;;;;19.60;100.00;97516.50;1224530;75;2924437;-68
2023/07/19 00:15:30;;;;;;;5.35;2.80;;;;;;;19.56;100.00;97522.38;1224454;75;2918928;-67
2023/07/19 00:18:02;;;;;;;10.00;3.60;;;;;;;19.18;100.00;97521.25;1223860;75;2926958;-66
2023/07/19 00:20:35;;;;;;;7.05;3.10;;;;;;;19.04;100.00;97526.81;1224013;75;2921233;-65
2023/07/19 00:23:08;;;;;;;6.45;3.40;;;;;;;19.37;100.00;97542.00;1224902;75;2920819;-67
2023/07/19 00:25:45;;;;;;;6.95;3.10;;;;;;;19.30;100.00;97562.09;1224658;75;2924579;-67
2023/07/19 00:28:17;;;;;;;8.30;3.35;;;;;;;19.07;100.00;97572.16;1224665;75;2927202;-68
2023/07/19 00:30:50;;;;;;;7.05;2.50;;;;;;;19.18;100.00;97598.94;1224171;75;2921553;-67
2023/07/19 00:33:22;;;;;;;5.45;2.80;;;;;;;19.32;100.00;97639.28;1224459;75;2922478;-69
2023/07/19 00:35:56;;;;;;;4.05;2.00;;;;;;;19.53;100.00;97670.66;1223035;75;2926904;-67
2023/07/19 00:38:29;;;;;;;5.75;2.55;;;;;;;19.62;100.00;97663.88;1223312;75;2928914;-70
2023/07/19 00:41:04;;;;;;;2.90;2.05;;;;;;;19.82;100.00;97668.03;1224580;75;2927160;-66
2023/07/19 00:43:37;;;;;;;8.95;3.60;;;;;;;19.32;100.00;97714.97;1224442;75;2930859;-68
2023/07/19 00:46:11;;;;;;;6.05;3.50;;;;;;;19.64;100.00;97696.69;1223300;75;2932166;-68
2023/07/19 00:48:44;;;;;;;6.90;3.00;;;;;;;19.69;100.00;97640.28;1224337;75;2920424;-69
2023/07/19 00:51:16;;;;;;;3.90;2.45;;;;;;;19.66;100.00;97614.31;1224652;75;2919386;-65
2023/07/19 00:53:50;;;;;;;7.90;2.95;;;;;;;19.70;100.00;97580.66;1223497;75;2932785;-68
2023/07/19 00:56:26;;;;;;;7.15;3.70;;;;;;;19.55;100.00;97520.91;1224794;75;2877434;-66
2023/07/19 00:58:59;;;;;;;11.65;3.95;;;;;;;19.24;100.00;97502.44;1224108;75;2927179;-65
2023/07/19 01:01:31;;;;;;;9.30;3.05;;;;;;;19.22;100.00;97518.88;1223556;75;2928536;-67
2023/07/19 01:04:04;;;;;;;8.00;3.65;;;;;;;19.14;100.00;97521.56;1223751;75;2934151;-67
2023/07/19 01:06:37;;;;;;;7.75;3.50;;;;;;;19.42;100.00;97490.41;1224049;75;2925859;-65
2023/07/19 01:09:10;;;;;;;6.50;3.15;;;;;;;19.30;100.00;97486.41;1224031;75;2923459;-68
2023/07/19 01:11:45;;;;;;;8.25;3.90;;;;;;;19.21;100.00;97470.22;1224017;75;2924265;-67
2023/07/19 01:14:18;;;;;;;7.60;3.35;;;;;;;19.28;100.00;97448.09;1224283;75;2923517;-65
2023/07/19 01:16:51;;;;;;;8.60;3.20;;;;;;;19.27;100.00;97354.28;1224628;75;2919177;-67
2023/07/19 01:19:24;;;;;;;12.00;3.90;;;;;;;19.28;100.00;97330.78;1224400;75;2924464;-68
2023/07/19 01:21:58;;;;;;;7.70;3.20;;;;;;;19.42;100.00;97334.22;1224782;75;2925714;-67
2023/07/19 01:24:33;;;;;;;8.20;3.25;;;;;;;19.67;100.00;97323.47;1224816;75;2922602;-67
2023/07/19 01:27:06;;;;;;;6.25;2.45;;;;;;;20.05;100.00;97359.81;1224403;75;2921666;-68
2023/07/19 01:29:39;;;;;;;5.20;2.60;;;;;;;20.06;100.00;97377.22;1223980;75;2937469;-68
2023/07/19 01:32:13;;;;;;;4.65;2.65;;;;;;;20.18;100.00;97373.59;1224313;75;2921075;-67
2023/07/19 01:34:45;;;;;;;3.25;2.10;;;;;;;20.18;100.00;97403.44;1223790;75;2936535;-66
2023/07/19 01:37:18;;;;;;;7.40;3.15;;;;;;;19.94;100.00;97435.91;1223553;75;2933943;-67
2023/07/19 01:39:53;;;;;;;5.15;2.60;;;;;;;20.16;100.00;97431.78;1223682;75;2936143;-67
2023/07/19 01:42:26;;;;;;;4.15;2.10;;;;;;;20.30;100.00;97429.63;1223949;75;2926655;-66
2023/07/19 01:44:59;;;;;;;6.30;2.00;;;;;;;20.14;100.00;97439.91;1223907;75;2922949;-65
2023/07/19 01:47:32;;;;;;;5.65;2.25;;;;;;;20.13;100.00;97448.78;1224044;75;2924331;-65
2023/07/19 01:50:06;;;;;;;5.80;2.90;;;;;;;19.67;100.00;97440.84;1223729;75;2919170;-65
2023/07/19 01:52:38;;;;;;;5.70;2.90;;;;;;;19.52;100.00;97430.34;1223833;75;2920245;-67
2023/07/19 01:55:14;;;;;;;5.15;3.00;;;;;;;19.80;100.00;97451.16;1224378;75;2926619;-66
2023/07/19 01:57:47;;;;;;;6.40;2.80;;;;;;;20.03;100.00;97475.59;1224343;75;2921112;-68
2023/07/19 02:00:20;;;;;;;5.55;2.30;;;;;;;20.20;100.00;97471.09;1224079;75;2930041;-65
2023/07/19 02:02:52;;;;;;;7.40;2.90;;;;;;;19.96;100.00;97440.88;1224171;75;2925228;-67
2023/07/19 02:05:25;;;;;;;7.85;3.05;;;;;;;20.00;100.00;97425.34;1223089;75;2924011;-69
2023/07/19 02:07:58;;;;;;;4.80;2.55;;;;;;;20.23;100.00;97452.56;1223140;75;2929020;-67
2023/07/19 02:10:33;;;;;;;5.15;2.70;;;;;;;20.21;100.00;97458.66;1223581;75;2925331;-67
2023/07/19 02:13:05;;;;;;;5.20;2.65;;;;;;;20.03;100.00;97450.56;1223971;75;2930612;-65
2023/07/19 02:15:39;;;;;;;7.50;2.80;;;;;;;19.76;100.00;97423.72;1222905;75;2928871;-67
2023/07/19 02:18:12;;;;;;;5.95;2.40;;;;;;;19.81;100.00;97424.13;1224775;75;2924176;-65
2023/07/19 02:20:51;;;;;;;4.70;2.60;;;;;;;20.14;100.00;97439.91;1224282;75;2923156;-68
2023/07/19 02:23:24;;;;;;;2.25;1.50;;;;;;;20.40;100.00;97454.88;1224497;75;2923805;-68
2023/07/19 02:25:59;;;;;;;5.70;2.50;;;;;;;19.96;100.00;97449.22;1224195;75;2931283;-68
2023/07/19 02:28:32;;;;;;;5.15;2.45;;;;;;;19.98;100.00;97452.22;1223809;75;2925613;-66
2023/07/19 02:31:06;;;;;;;2.95;1.70;;;;;;;20.04;100.00;97443.75;1224606;75;2932000;-65
2023/07/19 02:33:38;;;;;;;4.95;2.60;;;;;;;19.66;100.00;97425.47;1224168;75;2919883;-66
2023/07/19 02:36:12;;;;;;;6.05;2.80;;;;;;;19.92;100.00;97415.50;1224650;75;2928514;-66
2023/07/19 02:38:45;;;;;;;4.30;2.45;;;;;;;20.16;100.00;97417.88;1224402;75;2917625;-67
2023/07/19 02:41:21;;;;;;;4.40;1.80;;;;;;;20.33;100.00;97420.19;1223803;75;2927612;-68
2023/07/19 02:43:53;;;;;;;3.85;2.15;;;;;;;20.03;100.00;97433.91;1224084;75;2923145;-68
2023/07/19 02:46:26;;;;;;;5.65;2.60;;;;;;;20.09;100.00;97438.03;1224685;75;2925081;-66
2023/07/19 02:48:58;;;;;;;5.70;2.00;;;;;;;20.33;100.00;97433.34;1224308;75;2921997;-66
2023/07/19 02:51:31;;;;;;;3.95;1.95;;;;;;;19.95;100.00;97401.25;1224322;75;2929484;-68
2023/07/19 02:54:04;;;;;;;5.75;2.25;;;;;;;19.99;100.00;97398.88;1224171;75;2930437;-68
2023/07/19 02:56:39;;;;;;;4.30;2.05;;;;;;;20.08;100.00;97385.75;1224373;75;2920960;-67
2023/07/19 02:59:11;;;;;;;3.00;1.65;;;;;;;20.17;100.00;97379.69;1224183;75;2928792;-69
2023/07/19 03:01:44;;;;;;;7.40;2.90;;;;;;;19.81;100.00;97419.31;1223699;75;2930047;-67
2023/07/19 03:04:17;;;;;;;5.15;2.70;;;;;;;19.68;100.00;97431.25;1224582;75;2920174;-65
2023/07/19 03:06:49;;;;;;;7.65;3.10;;;;;;;19.64;100.00;97457.84;1224070;75;2928663;-66
2023/07/19 03:09:22;;;;;;;5.45;2.75;;;;;;;20.10;100.00;97447.09;1224395;75;2928174;-65
2023/07/19 03:11:58;;;;;;;5.45;2.75;;;;;;;19.94;100.00;97435.91;1224085;75;2917763;-66
2023/07/19 03:14:31;;;;;;;5.70;2.60;;;;;;;20.11;100.00;97437.47;1224395;75;2924400;-69
2023/07/19 03:17:03;;;;;;;3.45;2.00;;;;;;;20.41;100.00;97442.47;1224311;75;2925758;-68
2023/07/19 03:19:37;;;;;;;2.95;1.60;;;;;;;20.43;100.00;97446.19;1224760;75;2922286;-67
2023/07/19 03:22:10;;;;;;;2.45;1.45;;;;;;;20.36;100.00;97435.03;1224204;75;2927527;-66
2023/07/19 03:24:42;;;;;;;6.90;2.40;;;;;;;20.26;100.00;97440.34;1224144;75;2925477;-67
2023/07/19 03:27:18;;;;;;;3.40;1.65;;;;;;;20.37;100.00;97442.81;1223671;75;2923356;-66
2023/07/19 03:29:50;;;;;;;4.00;1.70;;;;;;;20.45;100.00;97442.84;1223941;75;2929102;-64
2023/07/19 03:32:23;;;;;;;5.20;2.00;;;;;;;20.18;100.00;97436.78;1224404;75;2928944;-69
2023/07/19 03:34:56;;;;;;;4.55;2.10;;;;;;;20.27;100.00;97418.84;1224533;75;2926185;-67
2023/07/19 03:37:28;;;;;;;5.30;1.75;;;;;;;20.21;100.00;97419.00;1223633;75;2920725;-66
2023/07/19 03:40:01;;;;;;;3.80;2.15;;;;;;;19.98;100.00;97425.16;1223990;75;2934331;-68
2023/07/19 03:42:36;;;;;;;4.30;2.10;;;;;;;20.14;100.00;97433.59;1223259;83;2925378;-63
2023/07/19 03:45:11;;;;;;;5.35;2.30;;;;;;;20.09;100.00;97442.84;1224022;75;2923677;-68
2023/07/19 03:47:44;;;;;;;2.60;1.90;;;;;;;20.31;100.00;97458.16;1223623;75;2922779;-65
2023/07/19 03:50:16;;;;;;;3.90;1.80;;;;;;;20.00;100.00;97446.84;1224374;75;2919663;-67
2023/07/19 03:52:49;;;;;;;5.40;1.70;;;;;;;20.33;100.00;97442.44;1224277;75;2930417;-66
2023/07/19 03:55:21;;;;;;;2.20;1.45;;;;;;;20.32;100.00;97415.91;1224435;75;2947547;-68
2023/07/19 03:57:57;;;;;;;1.65;1.50;;;;;;;20.33;100.00;97405.53;1223275;75;2922055;-67
2023/07/19 04:00:29;;;;;;;3.70;1.60;;;;;;;20.21;100.00;97397.50;1223914;75;2930400;-68
2023/07/19 04:03:02;;;;;;;4.40;1.80;;;;;;;20.19;100.00;97383.41;1224383;75;2923650;-67
2023/07/19 04:05:35;;;;;;;5.85;2.05;;;;;;;20.14;100.00;97367.66;1223754;75;2924221;-70
2023/07/19 04:08:07;;;;;;;3.55;1.70;;;;;;;20.20;100.00;97364.69;1222970;75;2923578;-69
2023/07/19 04:10:40;;;;;;;2.00;1.40;;;;;;;20.37;100.00;97348.28;1223881;75;2923562;-67
2023/07/19 04:13:16;;;;;;;4.60;2.50;;;;;;;20.06;100.00;97380.78;1223590;75;2929033;-66
2023/07/19 04:15:49;;;;;;;3.50;1.85;;;;;;;20.38;100.00;97390.75;1223939;75;2927046;-65
2023/07/19 04:18:22;;;;;;;2.70;2.00;;;;;;;20.35;100.00;97400.19;1224238;75;2931364;-66
2023/07/19 04:20:58;;;;;;;6.15;3.00;;;;;;;20.19;100.00;97400.09;1223660;75;2925580;-66
2023/07/19 04:23:31;;;;;;;7.30;3.00;;;;;;;20.02;100.00;97410.94;1223784;75;2929695;-67
2023/07/19 04:26:05;;;;;;;5.70;2.45;;;;;;;20.03;100.00;97409.63;1224182;75;2925099;-69
2023/07/19 04:28:40;;;;;;;3.75;2.70;;;;;;;20.09;100.00;97396.34;1224351;75;2916947;-67
2023/07/19 04:31:13;;;;;;;3.00;1.80;;;;;;;20.42;100.00;97382.78;1224422;75;2919198;-67
2023/07/19 04:33:46;;;;;;;4.05;1.65;;;;;;;20.51;100.00;97359.25;1223547;75;2932609;-68
2023/07/19 04:36:19;;;;;;;2.20;1.20;;;;;;;20.57;100.00;97368.22;1223527;75;2928113;-65
2023/07/19 04:38:54;;;;;;;3.15;2.00;;;;;;;20.30;100.00;97353.81;1224152;75;2916170;-69
2023/07/19 04:41:26;;;;;;;4.35;2.35;;;;;;;20.15;100.00;97335.03;1223689;75;2928263;-68
2023/07/19 04:44:01;;;;;;;3.65;2.00;;;;;;;20.40;100.00;97341.63;1223717;75;2926368;-67
2023/07/19 04:46:35;;;;;;;7.30;2.75;;;;;;;20.15;100.00;97360.03;1223852;75;2931209;-67
2023/07/19 04:49:08;;;;;;;4.65;2.80;;;;;;;20.38;100.00;97335.13;1223490;75;2923879;-66
2023/07/19 04:51:41;;;;;;;3.35;1.80;;;;;;;20.55;100.00;97332.63;1223477;75;2926436;-68
2023/07/19 04:54:13;;;;;;;3.95;2.00;;;;;;;20.47;100.00;97331.06;1223207;75;2937913;-69
2023/07/19 04:56:46;;;;;;;3.90;2.10;;;;;;;20.31;100.00;97397.00;1223730;75;2930146;-68
2023/07/19 04:59:21;;;;;;;3.45;2.00;;;;;;;20.35;100.00;97392.59;1222848;75;2926103;-66
2023/07/19 05:01:54;;;;;;;2.90;1.75;;;;;;;20.41;100.00;97414.66;1223371;75;2930681;-66
2023/07/19 05:04:26;;;;;;;6.40;2.30;;;;;;;20.30;100.00;97407.38;1223763;75;2927694;-67
2023/07/19 05:06:59;;;;;;;5.20;2.55;;;;;;;20.11;100.00;97415.25;1223753;75;2924531;-67
2023/07/19 05:09:31;;;;;;;5.10;2.40;;;;;;;20.13;100.00;97432.09;1223930;75;2927565;-66
2023/07/19 05:12:04;;;;;;;8.25;3.70;;;;;;;19.99;100.00;97459.28;1223569;75;2928132;-68
2023/07/19 05:14:40;;;;;;;7.95;3.65;;;;;;;20.07;100.00;97462.84;1223749;75;2928973;-66
2023/07/19 05:17:13;;;;;;;7.75;3.45;;;;;;;19.99;100.00;97467.59;1224015;75;2919672;-69
2023/07/19 05:19:45;;;;;;;6.80;2.80;;;;;;;20.42;100.00;97469.00;1223044;75;2928241;-68
2023/07/19 05:22:18;;;;;;;5.20;2.15;;;;;;;20.52;100.00;97449.75;1222980;75;2928200;-67
2023/07/19 05:24:51;;;;;;;3.65;2.05;;;;;;;20.63;100.00;97455.75;1224055;75;2923369;-66
2023/07/19 05:27:23;;;;;;;4.65;1.70;;;;;;;20.57;100.00;97443.31;1201770;75;4682067;-68
2023/07/19 05:29:59;;;;;;;2.20;1.30;;;;;;;20.75;100.00;97447.09;1224350;75;2925380;-68
2023/07/19 05:32:31;;;;;;;2.65;1.70;;;;;;;20.80;100.00;97430.22;1223924;75;2923542;-68
2023/07/19 05:35:04;;;;;;;4.00;1.40;;;;;;;20.92;100.00;97433.41;1221004;67;3037984;-67
2023/07/19 05:37:37;;;;;;;5.35;2.05;;;;;;;20.38;100.00;97438.75;1223430;75;2931404;-66
2023/07/19 05:40:12;;;;;;;10.60;3.35;;;;;;;20.04;100.00;97479.88;1223450;75;2931256;-68
2023/07/19 05:42:44;;;;;;;6.50;3.15;;;;;;;19.73;100.00;97472.03;1224255;75;2923052;-67
2023/07/19 05:45:19;;;;;;;4.80;2.95;;;;;;;20.27;100.00;97441.81;1224506;75;2923585;-69
2023/07/19 05:47:52;;;;;;;5.10;2.50;;;;;;;20.42;100.00;97450.25;1224310;75;2922183;-66
2023/07/19 05:50:25;;;;;;;4.85;2.90;;;;;;;20.40;100.00;97466.00;1223872;75;2931436;-67
2023/07/19 05:52:57;;;;;;;4.10;2.55;;;;;;;20.57;100.00;97432.94;1223737;75;2934836;-68
2023/07/19 05:55:30;;;;;;;3.75;2.05;;;;;;;20.42;100.00;97389.09;1223955;75;2930725;-68
2023/07/19 05:58:03;;;;;;;7.10;3.00;;;;;;;20.07;100.00;97373.91;1223424;75;2928371;-67
2023/07/19 06:00:40;;;;;;;6.75;2.90;;;;;;;20.11;100.00;97409.69;1224317;75;2935168;-66
2023/07/19 06:03:12;;;;;;;6.25;2.70;;;;;;;20.14;100.00;97437.13;1224035;75;2924132;-66
2023/07/19 06:05:46;;;;;;;7.05;2.65;;;;;;;20.06;100.00;97463.38;1223686;75;2921425;-69
2023/07/19 06:08:19;;;;;;;6.85;2.65;;;;;;;20.11;100.00;97448.59;1222810;75;2922798;-65
2023/07/19 06:10:51;;;;;;;6.10;3.15;;;;;;;19.92;100.00;97421.06;1222961;75;2927017;-66
2023/07/19 06:13:25;;;;;;;5.70;2.90;;;;;;;20.12;100.00;97395.22;1223508;75;2930654;-66
2023/07/19 06:16:00;;;;;;;4.10;1.95;;;;;;;20.45;100.00;97403.19;1223204;75;2928461;-67
2023/07/19 06:18:33;;;;;;;7.45;2.85;;;;;;;20.06;100.00;97421.69;1223446;75;2926400;-65
2023/07/19 06:21:05;;;;;;;11.10;2.95;;;;;;;20.13;100.00;97429.31;1223625;75;2919245;-70
2023/07/19 06:23:38;;;;;;;7.50;3.35;;;;;;;20.25;100.00;97430.50;1223096;75;2933483;-65
2023/07/19 06:26:10;;;;;;;4.55;2.40;;;;;;;20.64;100.00;97420.34;1223577;75;2932314;-66
2023/07/19 06:28:43;;;;;;;3.25;1.90;;;;;;;20.85;100.00;97432.13;1224031;75;2926744;-66
2023/07/19 06:31:18;;;;;;;1.80;1.20;;;;;;;21.00;100.00;97417.50;1223973;75;2926990;-66
2023/07/19 06:33:51;;;;;;;4.70;2.00;;;;;;;20.80;100.00;97424.66;1224729;75;2925090;-69
2023/07/19 06:36:24;;;;;;;5.40;2.55;;;;;;;20.76;100.00;97412.41;1223077;75;2923426;-66
2023/07/19 06:38:56;;;;;;;5.05;2.70;;;;;;;20.75;100.00;97410.91;1224135;75;2941098;-66
2023/07/19 06:41:30;;;;;;;7.35;3.00;;;;;;;20.79;100.00;97400.91;1223530;75;2926477;-67
2023/07/19 06:44:03;;;;;;;6.15;2.45;;;;;;;21.12;100.00;97409.53;1223945;75;2929564;-67
2023/07/19 06:46:38;;;;;;;4.40;1.60;;;;;;;21.27;100.00;97409.56;1222637;75;2932592;-65
2023/07/19 06:49:11;;;;;;;3.60;1.80;;;;;;;21.29;100.00;97422.94;1223506;75;2918650;-66
2023/07/19 06:51:44;;;;;;;4.40;1.60;;;;;;;21.19;100.00;97433.88;1222875;75;2921442;-69
2023/07/19 06:54:16;;;;;;;4.60;2.35;;;;;;;21.04;100.00;97439.38;1224665;75;2919811;-66
2023/07/19 06:56:49;;;;;;;4.90;2.70;;;;;;;20.94;100.00;97416.91;1222153;75;2924948;-69
2023/07/19 06:59:22;;;;;;;3.15;2.10;;;;;;;21.44;100.00;97419.44;1224529;75;2934130;-67
2023/07/19 07:01:57;;;;;;;3.65;2.20;;;;;;;21.27;100.00;97429.03;1224227;75;2919839;-66
2023/07/19 07:04:29;;;;;;;4.85;2.70;;;;;;;21.47;100.00;97412.75;1223765;75;2919201;-64
2023/07/19 07:07:02;;;;;;;4.55;2.30;;;;;;;21.83;100.00;97406.97;1224153;75;2928563;-67
2023/07/19 07:09:36;;;;;;;4.20;2.20;;;;;;;21.91;100.00;97395.81;1223921;75;2929612;-69
2023/07/19 07:12:11;;;;;;;5.90;2.90;;;;;;;21.69;100.00;97386.94;1223289;75;2922098;-69
2023/07/19 07:14:44;;;;;;;4.70;2.80;;;;;;;22.20;100.00;97376.84;1223462;75;2924470;-67
2023/07/19 07:17:19;;;;;;;6.55;2.85;;;;;;;22.05;100.00;97372.00;1223724;75;2922184;-68
2023/07/19 07:19:53;;;;;;;5.15;2.70;;;;;;;22.18;100.00;97384.25;1224243;75;2928554;-66
2023/07/19 07:22:26;;;;;;;5.10;2.25;;;;;;;22.79;100.00;97391.63;1224274;75;2920016;-68
2023/07/19 07:24:59;;;;;;;5.45;2.25;;;;;;;22.36;100.00;97380.28;1223460;75;2928530;-66
2023/07/19 07:27:32;;;;;;;8.50;3.10;;;;;;;22.55;100.00;97404.94;1224478;75;2920568;-67
2023/07/19 07:30:04;;;;;;;3.80;2.40;;;;;;;22.60;100.00;97406.06;1223764;75;2922752;-69
2023/07/19 07:32:41;;;;;;;6.80;2.55;;;;;;;22.42;100.00;97422.69;1223620;75;2917695;-69
2023/07/19 07:35:14;;;;;;;5.05;2.45;;;;;;;22.49;100.00;97423.97;1223909;75;2921527;-68
2023/07/19 07:37:47;;;;;;;4.60;2.40;;;;;;;22.70;100.00;97438.34;1223735;75;2924929;-69
2023/07/19 07:40:19;;;;;;;7.60;2.20;;;;;;;23.08;100.00;97419.97;1223749;75;2928437;-67
2023/07/19 07:42:52;;;;;;;3.50;2.05;;;;;;;23.45;100.00;97392.34;1224082;75;2923769;-66
2023/07/19 07:45:25;;;;;;;7.20;3.10;;;;;;;23.09;100.00;97388.69;1224307;75;2924117;-66
2023/07/19 07:48:00;;;;;;;6.25;2.85;;;;;;;23.54;100.00;97380.53;1224046;75;2933733;-67
2023/07/19 07:50:32;;;;;;;5.05;2.45;;;;;;;23.75;99.17;97394.19;1224430;75;2914162;-67
2023/07/19 07:53:05;;;;;;;8.20;3.45;;;;;;;23.28;100.00;97407.00;1224411;75;2921102;-68
2023/07/19 07:55:38;;;;;;;6.55;2.70;;;;;;;23.36;96.26;97405.63;1224057;75;2921004;-69
2023/07/19 07:58:13;;;;;;;6.30;2.55;;;;;;;23.72;95.85;97404.41;1223693;75;2930214;-69
2023/07/19 08:00:46;;;;;;;7.55;2.95;;;;;;;23.51;94.21;97409.63;1224344;75;2925507;-64
2023/07/19 08:03:21;;;;;;;7.90;3.00;;;;;;;23.27;95.26;97414.63;1224178;75;2927740;-67
2023/07/19 08:05:54;;;;;;;4.85;2.60;;;;;;;23.33;97.12;97406.78;1224221;75;2920105;-69
2023/07/19 08:08:26;;;;;;;5.05;2.20;;;;;;;23.59;93.48;97407.50;1224378;75;2921494;-66
2023/07/19 08:10:59;;;;;;;4.75;2.10;;;;;;;23.69;94.34;97410.41;1223502;75;2923471;-66
2023/07/19 08:13:31;;;;;;;9.40;2.70;;;;;;;23.57;92.77;97402.50;1223991;75;2922088;-67
2023/07/19 08:16:06;;;;;;;5.55;2.50;;;;;;;23.36;95.65;97414.03;1224409;75;2922650;-66
2023/07/19 08:18:41;;;;;;;6.95;3.40;;;;;;;23.61;94.12;97416.78;1223938;75;2926047;-68
2023/07/19 08:21:14;;;;;;;11.65;3.85;;;;;;;23.66;96.32;97411.56;1224135;75;2923320;-68
2023/07/19 08:23:51;;;;;;;8.95;3.25;;;;;;;23.80;93.16;97409.97;1224096;75;2930503;-67
2023/07/19 08:26:24;;;;;;;5.50;2.90;;;;;;;23.97;89.50;97404.38;1224741;75;2930528;-69
2023/07/19 08:28:56;;;;;;;5.35;2.40;;;;;;;24.14;90.64;97398.06;1223899;75;2925525;-67
2023/07/19 08:31:29;;;;;;;4.30;2.50;;;;;;;24.01;86.77;97401.94;1223345;75;2929269;-68
2023/07/19 08:34:04;;;;;;;5.60;2.05;;;;;;;24.35;88.36;97400.44;1224453;75;2920165;-69
2023/07/19 08:36:37;;;;;;;3.05;1.60;;;;;;;24.54;89.85;97391.50;1224488;75;2923541;-68
2023/07/19 08:39:09;;;;;;;6.30;1.75;;;;;;;24.50;88.11;97404.41;1223541;75;2922625;-67
2023/07/19 08:41:43;;;;;;;2.50;1.55;;;;;;;24.63;85.63;97402.00;1222384;75;2988407;-68
2023/07/19 08:44:15;;;;;;;2.20;1.40;;;;;;;24.65;87.73;97409.81;1224814;75;2919526;-69
2023/07/19 08:46:52;;;;;;;8.55;3.00;;;;;;;24.36;90.54;97418.69;1221948;75;2994111;-67
2023/07/19 08:49:27;;;;;;;2.90;1.90;;;;;;;24.56;84.81;97430.09;1224322;75;2926304;-68
2023/07/19 08:52:00;;;;;;;3.20;1.80;;;;;;;24.60;85.71;97436.75;1224637;75;2924529;-69
2023/07/19 08:54:33;;;;;;;7.10;2.20;;;;;;;24.20;90.95;97448.19;1224021;75;2931136;-68
2023/07/19 08:57:07;;;;;;;6.60;2.40;;;;;;;23.83;95.54;97461.91;1224205;75;2919674;-65
2023/07/19 08:59:40;;;;;;;11.85;3.80;;;;;;;23.60;98.56;97462.09;1224493;75;2926196;-68
2023/07/19 09:02:13;;;;;;;13.60;3.85;;;;;;;23.31;100.00;97453.34;1225044;75;2918584;-67
2023/07/19 09:05:10;;;;;;;11.20;3.75;;;;;;;22.93;100.00;97466.19;1224594;75;2926475;-68
2023/07/19 09:07:44;;;;;;;7.50;3.60;;;;;;;22.65;100.00;97463.69;1224323;75;2920895;-67
2023/07/19 09:10:16;;;;;;;13.45;3.70;;;;;;;22.78;100.00;97466.25;1224155;75;2920332;-67
2023/07/19 09:12:49;;;;;;;6.35;2.95;;;;;;;22.95;100.00;97468.41;1223745;75;2924951;-69
2023/07/19 09:15:22;;;;;;;8.20;3.20;;;;;;;23.01;100.00;97488.50;1224572;75;2924112;-66
2023/07/19 09:17:55;;;;;;;8.65;3.15;;;;;;;23.24;100.00;97493.25;1224140;75;2926477;-68
2023/07/19 09:20:31;;;;;;;6.85;3.60;;;;;;;23.09;100.00;97485.66;1223514;75;2924864;-71
2023/07/19 09:23:08;;;;;;;10.00;4.25;;;;;;;22.85;100.00;97475.88;1222874;75;3054780;-68
2023/07/19 09:25:54;;;;;;;6.80;3.80;;;;;;;23.23;100.00;97453.38;1224468;75;2876423;-66
2023/07/19 09:28:28;;;;;;;8.20;3.15;;;;;;;23.30;100.00;97446.28;1223456;75;2923864;-67
2023/07/19 09:31:05;;;;;;;6.25;2.65;;;;;;;23.57;100.00;97447.22;1223921;75;2926420;-66
2023/07/19 09:33:37;;;;;;;7.00;2.40;;;;;;;24.01;100.00;97443.13;1223704;75;2933642;-69
2023/07/19 09:36:15;;;;;;;3.70;2.25;;;;;;;24.37;100.00;97439.78;1223912;75;2925777;-70
2023/07/19 09:38:48;;;;;;;3.10;1.90;;;;;;;24.73;100.00;97444.06;1223120;75;2928529;-66
2023/07/19 09:41:22;;;;;;;1.60;1.35;;;;;;;24.93;100.00;97442.13;1223701;75;2919822;-68
2023/07/19 09:43:56;;;;;;;2.25;1.40;;;;;;;25.21;100.00;97454.84;1223848;75;2929374;-67
2023/07/19 09:46:29;;;;;;;2.55;1.60;;;;;;;25.31;100.00;97438.09;1223661;75;2928072;-66
2023/07/19 09:49:02;;;;;;;4.05;1.80;;;;;;;25.50;100.00;97434.63;1224995;75;2921278;-68
2023/07/19 09:51:41;;;;;;;3.45;1.60;;;;;;;25.87;98.33;97426.19;1224726;75;2923014;-68
2023/07/19 09:54:15;;;;;;;2.40;1.40;;;;;;;26.21;100.00;97425.19;1223343;75;2919634;-67
2023/07/19 09:56:48;;;;;;;3.75;2.00;;;;;;;26.55;98.87;97410.19;1224003;75;2926616;-66
2023/07/19 09:59:26;;;;;;;3.40;1.60;;;;;;;26.71;92.96;97402.16;1223807;75;2938302;-69
2023/07/19 10:01:59;;;;;;;2.40;1.40;;;;;;;26.90;89.29;97395.03;1224616;75;2926123;-68
2023/07/19 10:04:37;;;;;;;5.55;1.70;;;;;;;27.18;87.90;97394.22;1224812;75;2919690;-69
2023/07/19 10:07:23;;;;;;;8.40;2.40;;;;;;;26.85;86.36;97399.63;1224386;75;2924566;-70
2023/07/19 10:10:05;;;;;;;6.15;2.05;;;;;;;26.90;82.43;97397.84;1224031;75;2924827;-67
2023/07/19 10:12:40;;;;;;;3.90;2.15;;;;;;;27.12;81.63;97381.81;1223612;75;2925722;-67
2023/07/19 10:15:16;;;;;;;4.80;2.55;;;;;;;27.46;87.40;97393.97;1224117;75;2921052;-68
2023/07/19 10:17:59;;;;;;;3.80;2.50;;;;;;;27.51;85.97;97393.63;1224482;75;2925988;-69
2023/07/19 10:20:35;;;;;;;5.90;2.50;;;;;;;27.30;82.29;97387.97;1224402;75;2921645;-68
2023/07/19 10:23:11;;;;;;;7.95;2.70;;;;;;;27.76;78.86;97395.31;1223864;75;2928723;-67
2023/07/19 10:25:50;;;;;;;6.45;2.45;;;;;;;28.34;76.56;97408.97;1224694;75;2926399;-69
2023/07/19 10:28:31;;;;;;;6.50;2.70;;;;;;;28.59;70.42;97388.03;1224488;75;2926918;-69
2023/07/19 10:31:04;;;;;;;4.80;2.30;;;;;;;28.61;70.27;97377.63;1224324;75;2917559;-68
2023/07/19 10:33:37;;;;;;;9.80;2.80;;;;;;;28.94;68.22;97371.22;1224513;75;2928008;-66
2023/07/19 10:36:13;;;;;;;5.80;1.90;;;;;;;29.14;65.21;97362.56;1213793;75;3590639;-67
2023/07/19 10:38:49;;;;;;;6.00;1.85;;;;;;;29.13;65.88;97361.06;1224509;75;2926966;-70
2023/07/19 10:41:22;;;;;;;4.50;1.90;;;;;;;29.46;67.42;97353.22;1224098;75;2921676;-67
2023/07/19 10:43:55;;;;;;;3.25;1.75;;;;;;;29.74;65.21;97353.47;1222829;75;2923169;-70
2023/07/19 10:46:27;;;;;;;5.15;2.20;;;;;;;29.49;62.79;97343.56;1224430;75;2934351;-70
2023/07/19 10:49:02;;;;;;;5.15;2.10;;;;;;;29.50;63.24;97347.09;1224040;75;2923591;-69
2023/07/19 10:51:34;;;;;;;4.50;1.95;;;;;;;30.17;62.87;97341.06;1224161;75;2921937;-67
2023/07/19 10:54:10;;;;;;;6.05;2.25;;;;;;;30.11;62.05;97347.09;1221885;75;2927556;-68
2023/07/19 10:56:43;;;;;;;8.75;2.85;;;;;;;29.57;62.46;97354.56;1223995;75;2922728;-69
2023/07/19 10:59:17;;;;;;;6.95;2.65;;;;;;;29.38;63.76;97347.09;1223970;75;2921080;-68
2023/07/19 11:01:51;;;;;;;9.40;3.70;;;;;;;28.47;65.19;97351.38;1223982;75;2918688;-67
2023/07/19 11:04:25;;;;;;;5.65;2.70;;;;;;;29.08;66.31;97346.03;1223380;75;2925342;-66
2023/07/19 11:07:00;;;;;;;7.05;3.05;;;;;;;28.98;65.11;97342.53;1224364;75;2928665;-68
2023/07/19 11:09:35;;;;;;;8.80;3.00;;;;;;;28.77;64.65;97340.56;1224279;75;2922856;-69
2023/07/19 11:12:09;;;;;;;3.20;2.10;;;;;;;29.18;63.28;97335.34;1224447;75;2939533;-67
2023/07/19 11:14:58;;;;;;;5.95;2.60;;;;;;;28.77;64.68;97344.13;1224326;75;2925508;-70
2023/07/19 11:17:33;;;;;;;6.90;3.05;;;;;;;27.83;68.61;97344.50;1223073;75;2975152;-69
2023/07/19 11:20:10;;;;;;;11.00;3.60;;;;;;;27.64;71.36;97336.16;1223309;75;2933686;-69
2023/07/19 11:22:42;;;;;;;8.75;3.30;;;;;;;27.48;70.73;97324.56;1225524;75;2918716;-68
2023/07/19 11:25:17;;;;;;;6.10;2.55;;;;;;;27.97;71.01;97308.13;1224499;75;2928627;-68
2023/07/19 11:27:53;;;;;;;8.75;3.15;;;;;;;28.75;66.22;97284.84;1224173;75;2932108;-69
2023/07/19 11:30:26;;;;;;;4.10;2.60;;;;;;;28.95;66.18;97288.13;1223361;75;2928662;-69
2023/07/19 11:33:06;;;;;;;5.60;2.60;;;;;;;29.25;63.36;97289.25;1221537;75;3039105;-66
2023/07/19 11:35:39;;;;;;;5.30;2.60;;;;;;;30.02;63.53;97289.47;1225221;75;2920701;-68
2023/07/19 11:38:11;;;;;;;5.90;2.85;;;;;;;29.05;61.95;97299.28;1224513;75;2922456;-70
2023/07/19 11:40:50;;;;;;;6.25;2.35;;;;;;;28.89;64.55;97305.41;1224730;75;2927341;-67